createdAt,value
2019-04-20T00:01:25.725Z,54.90
2019-04-20T00:03:52.026Z,54.90
2019-04-20T00:06:25.009Z,54.90
2019-04-20T00:09:03.296Z,55.10
2019-04-20T00:11:41.364Z,55.20
2019-04-20T00:14:08.296Z,55.20
2019-04-20T00:16:34.009Z,55.20
2019-04-20T00:19:05.911Z,55.30
2019-04-20T00:21:57.483Z,55.50
2019-04-20T00:24:33.276Z,55.50
2019-04-20T00:27:22.154Z,55.50
2019-04-20T00:29:49.395Z,56.10
2019-04-20T00:32:15.587Z,55.50
2019-04-20T00:34:40.685Z,55.50
2019-04-20T00:37:10.973Z,55.40
2019-04-20T00:39:42.723Z,55.40
2019-04-20T00:42:17.624Z,55.40
2019-04-20T00:44:57.161Z,55.40
2019-04-20T00:47:34.120Z,55.40
2019-04-20T00:50:08.150Z,55.20
2019-04-20T00:52:44.484Z,55.20
2019-04-20T00:54:58.108Z,55.10
2019-04-20T00:57:36.905Z,55.20
2019-04-20T01:00:22.890Z,54.90
2019-04-20T01:02:49.609Z,54.90
2019-04-20T01:05:35.362Z,54.90
2019-04-20T01:08:01.665Z,54.70
2019-04-20T01:10:35.391Z,54.70
2019-04-20T01:13:11.486Z,55.40
2019-04-20T01:15:43.455Z,54.80
2019-04-20T01:18:06.138Z,54.90
2019-04-20T01:20:37.476Z,54.90
2019-04-20T01:23:14.229Z,54.90
2019-04-20T01:25:43.439Z,54.90
2019-04-20T01:28:27.739Z,55.00
2019-04-20T01:31:00.017Z,55.00
2019-04-20T01:33:35.504Z,55.10
2019-04-20T01:36:03.532Z,54.90
2019-04-20T01:38:40.138Z,54.70
2019-04-20T01:40:55.214Z,54.70
2019-04-20T01:43:27.028Z,54.80
2019-04-20T01:46:07.580Z,54.60
2019-04-20T01:48:35.103Z,54.60
2019-04-20T01:51:11.831Z,54.60
2019-04-20T01:53:56.803Z,54.70
2019-04-20T01:56:27.508Z,54.90
2019-04-20T01:59:16.356Z,55.00
2019-04-20T02:02:05.238Z,55.00
2019-04-20T02:04:45.987Z,55.00
2019-04-20T02:07:18.374Z,55.10
2019-04-20T02:09:53.534Z,55.10
2019-04-20T02:12:25.359Z,55.20
2019-04-20T02:14:58.971Z,55.00
2019-04-20T02:17:36.914Z,55.20
2019-04-20T02:20:15.680Z,55.10
2019-04-20T02:22:49.024Z,55.20
2019-04-20T02:25:03.916Z,55.10
2019-04-20T02:27:43.281Z,55.10
2019-04-20T02:30:40.960Z,55.00
2019-04-20T02:33:32.224Z,55.20
2019-04-20T02:36:13.869Z,55.10
2019-04-20T02:41:23.636Z,55.10
2019-04-20T02:44:06.124Z,55.10
2019-04-20T02:46:24.504Z,55.10
2019-04-20T02:49:06.089Z,55.00
2019-04-20T02:51:39.404Z,54.90
2019-04-20T02:54:11.437Z,54.90
2019-04-20T02:56:45.366Z,55.20
2019-04-20T02:59:17.155Z,55.30
2019-04-20T03:01:40.839Z,55.20
2019-04-20T03:03:59.410Z,55.40
2019-04-20T03:06:37.526Z,55.40
2019-04-20T03:09:21.363Z,55.50
2019-04-20T03:12:00.951Z,55.80
2019-04-20T03:14:19.091Z,55.80
2019-04-20T03:16:50.602Z,55.90
2019-04-20T03:19:22.193Z,56.10
2019-04-20T03:22:03.859Z,56.10
2019-04-20T03:24:40.336Z,56.00
2019-04-20T03:27:26.668Z,56.10
2019-04-20T03:30:04.208Z,56.30
2019-04-20T03:35:20.812Z,56.70
2019-04-20T03:37:42.565Z,57.00
2019-04-20T03:40:13.897Z,57.40
2019-04-20T03:42:30.887Z,57.60
2019-04-20T03:45:08.657Z,57.80
2019-04-20T03:47:45.673Z,57.90
2019-04-20T03:50:31.916Z,58.00
2019-04-20T03:53:08.370Z,58.20
2019-04-20T03:55:49.171Z,58.40
2019-04-20T03:58:33.453Z,58.60
2019-04-20T04:01:57.138Z,58.90
2019-04-20T04:04:22.183Z,58.90
2019-04-20T04:06:41.627Z,58.90
2019-04-20T04:09:20.156Z,59.70
2019-04-20T04:11:54.870Z,59.60
2019-04-20T04:14:13.631Z,59.20
2019-04-20T04:16:51.292Z,59.20
2019-04-20T04:19:23.174Z,59.30
2019-04-20T04:22:04.162Z,59.20
2019-04-20T04:24:31.590Z,59.30
2019-04-20T04:27:09.226Z,59.20
2019-04-20T04:29:48.622Z,59.10
2019-04-20T04:32:33.148Z,59.10
2019-04-20T04:34:48.837Z,58.90
2019-04-20T04:37:26.231Z,59.00
2019-04-20T04:40:08.456Z,59.00
2019-04-20T04:42:36.722Z,58.90
2019-04-20T04:44:53.644Z,58.90
2019-04-20T04:47:16.853Z,58.90
2019-04-20T04:49:56.193Z,58.90
2019-04-20T04:52:29.398Z,58.90
2019-04-20T04:54:59.030Z,58.70
2019-04-20T04:57:26.347Z,58.80
2019-04-20T04:59:57.387Z,58.70
2019-04-20T05:02:32.545Z,58.70
2019-04-20T05:05:31.411Z,58.80
2019-04-20T05:07:52.096Z,58.60
2019-04-20T05:10:14.482Z,58.90
2019-04-20T05:12:46.247Z,58.70
2019-04-20T05:15:34.866Z,58.50
2019-04-20T05:18:13.325Z,58.30
2019-04-20T05:20:46.906Z,58.10
2019-04-20T05:23:35.154Z,58.20
2019-04-20T05:26:27.195Z,57.90
2019-04-20T05:28:51.752Z,58.00
2019-04-20T05:31:13.945Z,57.80
2019-04-20T05:34:11.728Z,57.80
2019-04-20T05:36:40.478Z,57.90
2019-04-20T05:39:15.871Z,57.80
2019-04-20T05:41:42.937Z,58.00
2019-04-20T05:44:12.793Z,57.90
2019-04-20T05:46:53.585Z,57.90
2019-04-20T05:49:25.811Z,58.00
2019-04-20T05:51:56.209Z,58.00
2019-04-20T05:54:32.561Z,58.30
2019-04-20T05:57:05.203Z,58.30
2019-04-20T05:59:35.087Z,58.20
2019-04-20T06:02:11.242Z,58.20
2019-04-20T06:04:55.676Z,58.10
2019-04-20T06:07:15.589Z,58.00
2019-04-20T06:09:46.397Z,57.90
2019-04-20T06:12:20.020Z,57.80
2019-04-20T06:15:04.496Z,57.60
2019-04-20T06:18:17.676Z,57.30
2019-04-20T06:20:58.932Z,57.60
2019-04-20T06:23:53.455Z,57.30
2019-04-20T06:26:35.223Z,57.10
2019-04-20T06:28:46.435Z,57.00
2019-04-20T06:31:42.877Z,56.80
2019-04-20T06:34:27.701Z,56.80
2019-04-20T06:36:49.896Z,56.50
2019-04-20T06:39:24.128Z,56.10
2019-04-20T06:44:32.089Z,55.60
2019-04-20T06:47:08.974Z,55.20
2019-04-20T06:49:34.473Z,54.90
2019-04-20T06:52:23.423Z,54.80
2019-04-20T06:55:05.566Z,54.60
2019-04-20T06:57:50.309Z,54.40
2019-04-20T07:00:20.542Z,54.40
2019-04-20T07:02:53.057Z,54.10
2019-04-20T07:05:22.100Z,53.70
2019-04-20T07:08:00.768Z,53.90
2019-04-20T07:10:37.636Z,53.80
2019-04-20T07:12:55.437Z,54.10
2019-04-20T07:15:36.376Z,53.80
2019-04-20T07:18:15.726Z,53.10
2019-04-20T07:21:00.519Z,53.20
2019-04-20T07:23:32.633Z,53.60
2019-04-20T07:26:12.794Z,53.50
2019-04-20T07:28:58.833Z,53.40
2019-04-20T07:31:06.750Z,53.20
2019-04-20T07:33:50.973Z,53.20
2019-04-20T07:36:19.900Z,52.70
2019-04-20T07:39:05.573Z,52.00
2019-04-20T07:41:29.641Z,52.40
2019-04-20T07:44:03.534Z,52.50
2019-04-20T07:46:42.963Z,52.20
2019-04-20T07:49:04.359Z,52.20
2019-04-20T07:51:19.499Z,52.50
2019-04-20T07:54:10.125Z,52.10
2019-04-20T07:56:39.378Z,51.50
2019-04-20T07:58:53.475Z,51.70
2019-04-20T08:02:13.681Z,51.50
2019-04-20T08:04:36.771Z,50.80
2019-04-20T08:06:58.537Z,50.20
2019-04-20T08:09:37.371Z,50.20
2019-04-20T08:12:26.837Z,48.80
2019-04-20T08:14:56.828Z,49.40
2019-04-20T08:17:35.475Z,49.60
2019-04-20T08:19:59.880Z,48.90
2019-04-20T08:22:38.877Z,49.00
2019-04-20T08:24:55.203Z,49.00
2019-04-20T08:27:21.239Z,48.70
2019-04-20T08:30:09.224Z,47.20
2019-04-20T08:33:13.428Z,46.70
2019-04-20T08:35:56.598Z,46.40
2019-04-20T08:40:47.846Z,46.10
2019-04-20T08:43:37.906Z,45.00
2019-04-20T08:46:01.823Z,44.80
2019-04-20T08:48:32.901Z,44.40
2019-04-20T08:51:03.620Z,43.30
2019-04-20T08:53:36.843Z,42.50
2019-04-20T08:56:00.235Z,40.20
2019-04-20T08:58:20.367Z,39.80
2019-04-20T09:00:55.468Z,39.90
2019-04-20T09:03:30.724Z,38.70
2019-04-20T09:06:06.779Z,37.70
2019-04-20T09:08:44.334Z,36.90
2019-04-20T09:11:21.930Z,36.10
2019-04-20T09:13:43.167Z,35.40
2019-04-20T09:16:10.993Z,33.80
2019-04-20T09:18:52.454Z,33.80
2019-04-20T09:21:33.076Z,33.10
2019-04-20T09:24:16.127Z,32.50
2019-04-20T09:26:37.690Z,32.50
2019-04-20T09:29:05.405Z,32.90
2019-04-20T09:31:48.685Z,32.70
2019-04-20T09:34:24.633Z,32.50
2019-04-20T09:37:41.219Z,32.10
2019-04-20T09:40:25.597Z,31.50
2019-04-20T09:42:54.263Z,32.10
2019-04-20T09:45:37.346Z,31.00
2019-04-20T09:48:06.787Z,29.90
2019-04-20T09:50:55.512Z,29.70
2019-04-20T09:53:22.139Z,30.30
2019-04-20T09:55:57.699Z,30.80
2019-04-20T09:58:25.752Z,31.40
2019-04-20T10:01:03.180Z,30.80
2019-04-20T10:03:20.650Z,30.70
2019-04-20T10:05:51.626Z,30.00
2019-04-20T10:08:23.917Z,30.00
2019-04-20T10:10:56.096Z,29.10
2019-04-20T10:13:27.543Z,28.80
2019-04-20T10:15:57.936Z,28.80
2019-04-20T10:18:30.018Z,29.10
2019-04-20T10:21:01.981Z,28.40
2019-04-20T10:23:34.451Z,28.70
2019-04-20T10:26:06.677Z,28.00
2019-04-20T10:28:37.708Z,28.20
2019-04-20T10:31:08.452Z,28.00
2019-04-20T10:33:39.674Z,27.10
2019-04-20T10:36:21.555Z,27.10
2019-04-20T10:38:55.020Z,26.70
2019-04-20T10:41:36.034Z,27.10
2019-04-20T10:43:58.741Z,27.20
2019-04-20T10:46:31.041Z,27.70
2019-04-20T10:49:04.771Z,27.80
2019-04-20T10:51:35.690Z,27.70
2019-04-20T10:54:06.801Z,26.80
2019-04-20T10:56:37.303Z,26.90
2019-04-20T10:59:09.712Z,27.30
2019-04-20T11:01:41.273Z,26.70
2019-04-20T11:04:12.569Z,26.30
2019-04-20T11:06:44.826Z,26.30
2019-04-20T11:09:16.611Z,27.20
2019-04-20T11:11:48.285Z,26.60
2019-04-20T11:14:26.379Z,26.90
2019-04-20T11:16:51.852Z,26.50
2019-04-20T11:19:23.291Z,26.20
2019-04-20T11:21:54.758Z,26.60
2019-04-20T11:24:26.076Z,26.00
2019-04-20T11:26:56.445Z,26.30
2019-04-20T11:29:28.355Z,25.60
2019-04-20T11:32:01.147Z,25.20
2019-04-20T11:34:35.378Z,25.30
2019-04-20T11:37:05.133Z,25.30
2019-04-20T11:39:36.986Z,23.00
2019-04-20T11:42:07.800Z,23.00
2019-04-20T11:44:39.343Z,22.50
2019-04-20T11:47:10.563Z,23.00
2019-04-20T11:49:41.660Z,23.40
2019-04-20T11:52:13.260Z,22.90
2019-04-20T11:54:44.371Z,23.10
2019-04-20T11:57:15.545Z,23.70
2019-04-20T11:59:47.285Z,23.50
2019-04-20T12:02:42.211Z,23.30
2019-04-20T12:05:21.441Z,23.90
2019-04-20T12:07:55.434Z,23.50
2019-04-20T12:10:28.300Z,23.50
2019-04-20T12:12:59.746Z,23.50
2019-04-20T12:15:34.775Z,23.50
2019-04-20T12:18:03.230Z,22.70
2019-04-20T12:20:34.547Z,23.10
2019-04-20T12:23:06.561Z,22.80
2019-04-20T12:25:39.356Z,22.80
2019-04-20T12:28:09.869Z,23.20
2019-04-20T12:30:41.910Z,22.70
2019-04-20T12:33:13.593Z,21.70
2019-04-20T12:35:44.956Z,21.70
2019-04-20T12:38:16.938Z,21.70
2019-04-20T12:40:48.313Z,21.20
2019-04-20T12:43:20.344Z,20.40
2019-04-20T12:45:51.808Z,20.70
2019-04-20T12:48:23.888Z,21.10
2019-04-20T12:50:55.454Z,21.20
2019-04-20T12:53:28.603Z,21.10
2019-04-20T12:56:02.340Z,21.80
2019-04-20T12:58:34.399Z,21.20
2019-04-20T13:01:06.627Z,21.10
2019-04-20T13:03:39.232Z,21.40
2019-04-20T13:06:10.033Z,22.30
2019-04-20T13:08:46.002Z,22.00
2019-04-20T13:11:22.564Z,22.40
2019-04-20T13:14:30.613Z,22.50
2019-04-20T13:17:02.136Z,22.30
2019-04-20T13:19:33.450Z,22.00
2019-04-20T13:22:07.223Z,21.90
2019-04-20T13:24:39.102Z,22.10
2019-04-20T13:27:11.111Z,21.20
2019-04-20T13:29:43.080Z,22.70
2019-04-20T13:32:14.088Z,22.10
2019-04-20T13:34:44.597Z,22.00
2019-04-20T13:37:15.971Z,21.80
2019-04-20T13:39:47.097Z,22.70
2019-04-20T13:42:24.321Z,22.20
2019-04-20T13:44:51.011Z,21.90
2019-04-20T13:47:22.814Z,21.90
2019-04-20T13:49:54.946Z,22.00
2019-04-20T13:52:26.815Z,21.80
2019-04-20T13:54:58.275Z,21.20
2019-04-20T13:57:36.249Z,20.80
2019-04-20T14:00:29.434Z,21.10
2019-04-20T14:03:04.934Z,20.90
2019-04-20T14:05:35.633Z,21.10
2019-04-20T14:08:09.516Z,20.70
2019-04-20T14:10:41.667Z,20.80
2019-04-20T14:13:16.969Z,20.80
2019-04-20T14:15:47.045Z,20.40
2019-04-20T14:18:19.325Z,20.30
2019-04-20T14:20:52.060Z,20.70
2019-04-20T14:23:23.215Z,22.10
2019-04-20T14:25:54.699Z,21.30
2019-04-20T14:28:27.058Z,21.60
2019-04-20T14:30:58.177Z,21.00
2019-04-20T14:33:30.736Z,21.10
2019-04-20T14:36:03.149Z,21.30
2019-04-20T14:38:36.050Z,21.30
2019-04-20T14:41:08.375Z,21.40
2019-04-20T14:43:40.132Z,21.80
2019-04-20T14:46:12.694Z,22.10
2019-04-20T14:48:44.877Z,21.50
2019-04-20T14:51:15.585Z,20.80
2019-04-20T14:53:47.456Z,21.40
2019-04-20T14:56:19.686Z,22.40
2019-04-20T14:59:01.857Z,22.10
2019-04-20T15:01:54.606Z,22.00
2019-04-20T15:04:27.384Z,20.90
2019-04-20T15:06:58.772Z,21.40
2019-04-20T15:09:30.737Z,21.40
2019-04-20T15:12:02.926Z,21.60
2019-04-20T15:14:34.864Z,21.70
2019-04-20T15:17:06.885Z,20.60
2019-04-20T15:19:57.194Z,21.70
2019-04-20T15:22:34.228Z,21.60
2019-04-20T15:25:05.473Z,20.90
2019-04-20T15:27:37.397Z,21.50
2019-04-20T15:30:09.629Z,21.30
2019-04-20T15:32:40.927Z,21.90
2019-04-20T15:35:18.489Z,21.00
2019-04-20T15:37:47.052Z,21.10
2019-04-20T15:40:19.349Z,21.10
2019-04-20T15:43:03.342Z,21.50
2019-04-20T15:45:25.288Z,21.20
2019-04-20T15:47:56.651Z,21.10
2019-04-20T15:50:27.742Z,21.30
2019-04-20T15:52:59.096Z,21.80
2019-04-20T15:55:35.769Z,21.90
2019-04-20T15:58:05.107Z,22.30
2019-04-20T16:00:36.407Z,22.70
2019-04-20T16:03:15.191Z,23.20
2019-04-20T16:05:51.288Z,23.50
2019-04-20T16:08:36.672Z,23.60
2019-04-20T16:11:09.234Z,24.00
2019-04-20T16:13:44.136Z,24.50
2019-04-20T16:16:12.303Z,24.70
2019-04-20T16:18:45.281Z,25.50
2019-04-20T16:21:22.475Z,25.60
2019-04-20T16:24:04.468Z,25.70
2019-04-20T16:26:55.720Z,25.10
2019-04-20T16:29:26.946Z,24.90
2019-04-20T16:31:58.486Z,25.70
2019-04-20T16:34:29.637Z,25.80
2019-04-20T16:37:04.208Z,26.70
2019-04-20T16:39:36.593Z,26.40
2019-04-20T16:42:08.690Z,26.40
2019-04-20T16:44:41.091Z,26.80
2019-04-20T16:47:12.322Z,26.80
2019-04-20T16:49:44.458Z,27.30
2019-04-20T16:52:15.040Z,27.90
2019-04-20T16:54:46.090Z,28.20
2019-04-20T16:57:19.427Z,28.40
2019-04-20T16:59:54.418Z,28.90
2019-04-20T17:02:22.838Z,28.70
2019-04-20T17:04:54.998Z,29.10
2019-04-20T17:07:35.137Z,28.70
2019-04-20T17:10:08.012Z,28.90
2019-04-20T17:12:39.936Z,29.40
2019-04-20T17:15:14.067Z,29.80
2019-04-20T17:17:48.134Z,29.90
2019-04-20T17:20:19.805Z,29.90
2019-04-20T17:22:51.565Z,30.00
2019-04-20T17:25:23.897Z,30.00
2019-04-20T17:28:13.011Z,30.20
2019-04-20T17:30:58.971Z,30.20
2019-04-20T17:33:53.410Z,30.00
2019-04-20T17:36:20.902Z,30.50
2019-04-20T17:38:54.193Z,30.90
2019-04-20T17:41:42.968Z,31.40
2019-04-20T17:44:11.924Z,31.80
2019-04-20T17:46:39.367Z,31.90
2019-04-20T17:49:16.022Z,31.70
2019-04-20T17:51:52.379Z,31.80
2019-04-20T17:54:19.836Z,32.60
2019-04-20T17:56:51.996Z,32.40
2019-04-20T17:59:24.279Z,32.60
2019-04-20T18:02:20.510Z,32.80
2019-04-20T18:05:14.513Z,33.10
2019-04-20T18:07:41.101Z,33.40
2019-04-20T18:10:11.479Z,33.60
2019-04-20T18:12:34.416Z,33.60
2019-04-20T18:15:18.249Z,33.80
2019-04-20T18:18:13.629Z,33.60
2019-04-20T18:20:38.843Z,33.70
2019-04-20T18:23:10.735Z,34.00
2019-04-20T18:26:05.481Z,34.00
2019-04-20T18:28:31.463Z,33.90
2019-04-20T18:31:15.456Z,34.10
2019-04-20T18:33:46.677Z,34.10
2019-04-20T18:36:23.652Z,34.20
2019-04-20T18:38:57.477Z,34.10
2019-04-20T18:41:30.813Z,34.20
2019-04-20T18:43:58.594Z,34.30
2019-04-20T18:46:49.882Z,34.40
2019-04-20T18:49:14.833Z,34.50
2019-04-20T18:51:33.895Z,34.60
2019-04-20T18:54:08.235Z,34.80
2019-04-20T18:56:43.757Z,34.80
2019-04-20T18:59:11.512Z,34.90
2019-04-20T19:01:43.733Z,35.20
2019-04-20T19:04:14.670Z,35.30
2019-04-20T19:06:45.900Z,35.50
2019-04-20T19:09:24.457Z,35.50
2019-04-20T19:11:53.496Z,35.50
2019-04-20T19:14:37.112Z,35.60
2019-04-20T19:17:28.924Z,35.70
2019-04-20T19:19:57.890Z,36.00
2019-04-20T19:22:26.097Z,36.00
2019-04-20T19:24:56.017Z,36.20
2019-04-20T19:27:36.989Z,36.30
2019-04-20T19:30:11.626Z,36.60
2019-04-20T19:32:46.425Z,36.80
2019-04-20T19:35:23.536Z,36.80
2019-04-20T19:37:51.648Z,37.00
2019-04-20T19:40:24.795Z,37.30
2019-04-20T19:42:59.246Z,37.50
2019-04-20T19:45:42.662Z,37.70
2019-04-20T19:48:09.395Z,38.00
2019-04-20T19:50:53.103Z,38.50
2019-04-20T19:53:22.696Z,38.90
2019-04-20T19:55:47.885Z,39.20
2019-04-20T19:58:17.515Z,39.40
2019-04-20T20:01:03.606Z,39.70
2019-04-20T20:03:35.577Z,40.00
2019-04-20T20:06:11.007Z,40.30
2019-04-20T20:08:41.918Z,40.50
2019-04-20T20:11:21.843Z,40.90
2019-04-20T20:13:51.057Z,41.00
2019-04-20T20:16:27.100Z,41.20
2019-04-20T20:19:01.432Z,41.60
2019-04-20T20:21:35.998Z,41.90
2019-04-20T20:23:56.332Z,42.10
2019-04-20T20:26:33.553Z,42.50
2019-04-20T20:29:09.299Z,42.60
2019-04-20T20:31:48.599Z,42.70
2019-04-20T20:34:13.889Z,42.90
2019-04-20T20:36:47.111Z,43.40
2019-04-20T20:39:19.914Z,43.80
2019-04-20T20:41:57.821Z,44.10
2019-04-20T20:44:33.030Z,44.50
2019-04-20T20:46:58.921Z,44.80
2019-04-20T20:49:47.057Z,45.10
2019-04-20T20:52:12.329Z,45.40
2019-04-20T20:54:41.347Z,45.60
2019-04-20T20:57:07.386Z,45.70
2019-04-20T20:59:42.717Z,45.80
2019-04-20T21:02:12.428Z,45.80
2019-04-20T21:04:37.662Z,45.80
2019-04-20T21:07:08.896Z,45.80
2019-04-20T21:09:39.798Z,45.80
2019-04-20T21:12:14.922Z,46.00
2019-04-20T21:14:44.146Z,46.10
2019-04-20T21:17:18.383Z,46.10
2019-04-20T21:20:03.448Z,46.20
2019-04-20T21:22:43.782Z,46.20
2019-04-20T21:24:56.886Z,46.30
2019-04-20T21:27:27.709Z,46.40
2019-04-20T21:30:00.502Z,46.50
2019-04-20T21:32:33.102Z,46.50
2019-04-20T21:35:06.472Z,46.70
2019-04-20T21:37:37.056Z,46.80
2019-04-20T21:40:22.764Z,47.00
2019-04-20T21:42:48.179Z,47.00
2019-04-20T21:45:20.020Z,47.10
2019-04-20T21:47:48.298Z,47.10
2019-04-20T21:50:36.244Z,47.20
2019-04-20T21:52:58.476Z,47.20
2019-04-20T21:55:25.938Z,47.10
2019-04-20T21:58:00.830Z,47.10
2019-04-20T22:00:42.578Z,47.10
2019-04-20T22:03:13.715Z,47.40
2019-04-20T22:05:44.706Z,47.50
2019-04-20T22:08:18.215Z,47.90
2019-04-20T22:10:50.257Z,47.70
2019-04-20T22:13:26.766Z,47.70
2019-04-20T22:15:58.498Z,47.70
2019-04-20T22:18:27.175Z,47.90
2019-04-20T22:21:11.224Z,47.90
2019-04-20T22:23:49.226Z,47.90
2019-04-20T22:26:12.058Z,48.10
2019-04-20T22:28:36.404Z,48.20
2019-04-20T22:31:08.404Z,48.10
2019-04-20T22:33:44.636Z,48.40
2019-04-20T22:36:16.257Z,48.40
2019-04-20T22:39:07.504Z,48.40
2019-04-20T22:41:53.532Z,48.40
2019-04-20T22:44:22.503Z,48.40
2019-04-20T22:46:54.174Z,48.50
2019-04-20T22:49:39.994Z,48.60
2019-04-20T22:52:05.908Z,48.70
2019-04-20T22:54:46.788Z,48.80
2019-04-20T22:57:19.357Z,49.10
2019-04-20T22:59:45.896Z,49.10
2019-04-20T23:02:09.836Z,49.10
2019-04-20T23:04:42.705Z,49.00
2019-04-20T23:07:14.809Z,49.10
2019-04-20T23:09:52.720Z,49.20
2019-04-20T23:12:23.013Z,49.10
2019-04-20T23:14:52.336Z,49.20
2019-04-20T23:17:29.892Z,49.20
2019-04-20T23:20:00.922Z,49.40
2019-04-20T23:22:36.952Z,49.30
2019-04-20T23:25:03.135Z,49.30
2019-04-20T23:27:36.529Z,49.50
2019-04-20T23:30:12.600Z,49.50
2019-04-20T23:32:42.177Z,49.50
2019-04-20T23:35:18.276Z,49.60
2019-04-20T23:37:46.703Z,49.70
2019-04-20T23:40:19.571Z,49.70
2019-04-20T23:42:56.096Z,49.70
2019-04-20T23:45:52.378Z,49.80
2019-04-20T23:48:28.486Z,49.90
2019-04-20T23:51:26.380Z,50.10
2019-04-20T23:53:45.509Z,50.20
2019-04-20T23:56:03.920Z,50.10
2019-04-20T23:58:40.656Z,50.10
